Time;durP1;ratioP1;P1;durP2;ratioP2;P2;SDS_P1;SDS_P2;PMS_P1;PMS_P2;Temp;Humidity;BMP_temperature;BMP_pressure;BME280_temperature;BME280_humidity;BME280_pressure;Samples;Min_cycle;Max_cycle;Signal;HPM_P1;HPM_P2
2023/02/28 00:02:25;;;;;;;19.02;13.85;;;3.30;99.90;;;;;;4997113;28;20204;-60
2023/02/28 00:05:00;;;;;;;19.70;12.00;;;3.20;99.90;;;;;;4997014;28;20200;-59
2023/02/28 00:07:28;;;;;;;17.98;12.98;;;3.30;99.90;;;;;;4996892;28;20189;-59
2023/02/28 00:09:55;;;;;;;15.52;13.32;;;3.10;99.90;;;;;;4996767;28;20205;-59
2023/02/28 00:12:21;;;;;;;18.17;12.88;;;3.20;99.90;;;;;;4996537;28;20686;-60
2023/02/28 00:14:48;;;;;;;19.92;14.27;;;3.30;99.90;;;;;;4996845;28;20619;-59
2023/02/28 00:17:14;;;;;;;16.10;12.70;;;3.20;99.90;;;;;;4996722;28;20288;-60
2023/02/28 00:19:41;;;;;;;12.43;10.25;;;3.10;99.90;;;;;;4996606;28;20565;-59
2023/02/28 00:22:07;;;;;;;19.63;13.35;;;3.10;99.90;;;;;;4996871;28;20233;-59
2023/02/28 00:24:35;;;;;;;14.93;11.77;;;3.30;99.90;;;;;;4996492;28;20197;-59
2023/02/28 00:27:02;;;;;;;17.25;11.98;;;3.40;99.90;;;;;;4996313;28;20285;-60
2023/02/28 00:29:28;;;;;;;15.85;11.48;;;3.50;99.90;;;;;;4996560;28;20204;-60
2023/02/28 00:31:55;;;;;;;14.65;10.55;;;3.30;99.90;;;;;;4996671;28;20687;-60
2023/02/28 00:34:21;;;;;;;13.30;11.25;;;3.30;99.90;;;;;;4996332;28;20628;-59
2023/02/28 00:36:49;;;;;;;13.07;9.90;;;3.30;99.90;;;;;;4996044;28;20222;-59
2023/02/28 00:39:16;;;;;;;11.85;9.65;;;3.40;99.90;;;;;;4996101;28;20230;-59
2023/02/28 00:41:44;;;;;;;13.23;10.73;;;3.40;99.90;;;;;;4996103;28;20326;-59
2023/02/28 00:44:10;;;;;;;10.88;8.70;;;3.50;99.90;;;;;;4995239;28;20657;-60
2023/02/28 00:46:37;;;;;;;13.68;9.57;;;3.40;99.90;;;;;;4996185;28;20228;-59
2023/02/28 00:49:03;;;;;;;10.60;9.20;;;3.40;99.90;;;;;;4996045;28;20573;-59
2023/02/28 00:51:30;;;;;;;9.77;8.68;;;3.40;99.90;;;;;;4995949;28;20241;-59
2023/02/28 00:53:56;;;;;;;11.93;9.20;;;3.00;99.90;;;;;;4995824;28;20197;-60
2023/02/28 00:56:23;;;;;;;14.27;9.73;;;3.00;99.90;;;;;;4995777;28;20576;-59
2023/02/28 00:58:51;;;;;;;14.50;9.20;;;3.10;99.90;;;;;;4995866;28;20262;-59
2023/02/28 01:01:17;;;;;;;11.52;8.30;;;3.10;99.90;;;;;;4995880;28;20279;-59
2023/02/28 01:03:44;;;;;;;10.25;8.60;;;2.90;99.90;;;;;;4995785;28;20281;-59
2023/02/28 01:06:10;;;;;;;8.70;7.43;;;2.80;99.90;;;;;;4995661;28;20222;-60
2023/02/28 01:08:37;;;;;;;9.68;7.28;;;3.00;99.90;;;;;;4995511;28;20197;-60
2023/02/28 01:11:09;;;;;;;9.40;6.38;;;3.00;99.90;;;;;;4995772;28;20188;-59
2023/02/28 01:13:36;;;;;;;11.05;6.53;;;2.90;99.90;;;;;;4995711;28;20197;-60
2023/02/28 01:16:04;;;;;;;7.53;6.43;;;3.00;99.90;;;;;;4995503;28;20239;-59
2023/02/28 01:18:31;;;;;;;8.10;6.00;;;2.90;99.90;;;;;;4995464;28;20214;-59
2023/02/28 01:20:57;;;;;;;6.13;5.47;;;2.90;99.90;;;;;;4995376;28;20201;-59
2023/02/28 01:23:25;;;;;;;8.75;7.40;;;2.90;99.90;;;;;;4995288;28;20192;-60
2023/02/28 01:25:52;;;;;;;10.38;6.32;;;2.90;99.90;;;;;;4995487;28;20220;-60
2023/02/28 01:28:18;;;;;;;7.55;6.65;;;3.00;99.90;;;;;;4995425;28;20249;-59
2023/02/28 01:30:49;;;;;;;8.90;6.82;;;2.90;99.90;;;;;;4995309;28;20200;-59
2023/02/28 01:33:16;;;;;;;7.55;6.50;;;2.80;99.90;;;;;;4995254;28;20252;-59
2023/02/28 01:35:43;;;;;;;8.07;6.57;;;2.90;99.90;;;;;;4994982;28;20228;-60
2023/02/28 01:38:09;;;;;;;8.95;7.15;;;2.90;99.90;;;;;;4995154;28;20204;-59
2023/02/28 01:40:36;;;;;;;6.80;6.20;;;3.00;99.90;;;;;;4995214;28;20208;-59
2023/02/28 01:43:02;;;;;;;7.70;6.75;;;2.90;99.90;;;;;;4995037;28;20276;-59
2023/02/28 01:45:31;;;;;;;11.65;7.70;;;2.80;99.90;;;;;;4994994;28;20196;-59
2023/02/28 01:48:02;;;;;;;8.95;7.88;;;2.90;99.90;;;;;;4994925;28;20203;-60
2023/02/28 01:50:34;;;;;;;9.40;8.05;;;3.00;99.90;;;;;;4994763;28;20226;-60
2023/02/28 01:53:05;;;;;;;9.23;7.28;;;3.00;99.90;;;;;;4995072;28;20199;-60
2023/02/28 01:55:32;;;;;;;9.30;7.13;;;2.80;99.90;;;;;;4993880;28;20596;-59
2023/02/28 01:58:02;;;;;;;10.18;7.97;;;2.90;99.90;;;;;;4994702;28;20200;-60
2023/02/28 02:00:30;;;;;;;7.05;6.43;;;2.90;99.90;;;;;;4995119;28;20220;-59
2023/02/28 02:03:00;;;;;;;15.68;8.00;;;2.90;99.90;;;;;;4994520;28;20207;-59
2023/02/28 02:05:31;;;;;;;9.50;7.93;;;2.80;99.90;;;;;;4994685;28;20200;-60
2023/02/28 02:08:02;;;;;;;10.77;7.88;;;2.60;99.90;;;;;;4994669;28;20603;-60
2023/02/28 02:10:33;;;;;;;7.80;7.00;;;2.50;99.90;;;;;;4994539;28;20248;-59
2023/02/28 02:13:23;;;;;;;8.48;6.88;;;2.60;99.90;;;;;;4994415;28;20199;-59
2023/02/28 02:15:58;;;;;;;7.43;6.65;;;2.50;99.90;;;;;;4994470;28;20262;-59
2023/02/28 02:18:35;;;;;;;8.02;6.32;;;2.60;99.90;;;;;;4994398;28;20633;-60
2023/02/28 02:21:44;;;;;;;7.82;6.43;;;2.40;99.90;;;;;;4994272;28;20677;-59
2023/02/28 02:24:52;;;;;;;7.25;6.55;;;2.50;99.90;;;;;;4994353;28;20279;-60
2023/02/28 02:27:25;;;;;;;8.65;7.00;;;2.50;99.90;;;;;;4994199;28;20276;-59
2023/02/28 02:30:19;;;;;;;7.78;6.85;;;2.40;99.90;;;;;;4994124;28;20203;-60
2023/02/28 02:33:03;;;;;;;8.75;6.22;;;2.20;99.90;;;;;;4994282;28;20684;-59
2023/02/28 02:35:35;;;;;;;7.20;6.50;;;2.10;99.90;;;;;;4994197;28;20635;-59
2023/02/28 02:38:09;;;;;;;7.55;6.75;;;2.10;99.90;;;;;;4994017;28;20563;-59
2023/02/28 02:40:39;;;;;;;11.68;7.30;;;2.10;99.90;;;;;;4994175;28;20314;-60
2023/02/28 02:43:13;;;;;;;7.25;6.57;;;2.00;99.90;;;;;;4994047;28;20197;-59
2023/02/28 02:45:45;;;;;;;11.02;7.88;;;2.00;99.90;;;;;;4993954;28;20197;-59
2023/02/28 02:48:15;;;;;;;8.18;7.10;;;1.80;99.90;;;;;;4993824;28;20231;-59
2023/02/28 02:50:47;;;;;;;8.13;6.70;;;1.80;99.90;;;;;;4993803;28;20193;-60
2023/02/28 02:53:16;;;;;;;8.27;7.05;;;1.70;99.90;;;;;;4993919;28;20276;-60
2023/02/28 02:55:46;;;;;;;7.50;6.20;;;1.80;99.90;;;;;;4993926;28;20584;-59
2023/02/28 02:58:17;;;;;;;8.60;6.90;;;1.80;99.90;;;;;;4993753;28;20201;-59
2023/02/28 03:00:47;;;;;;;7.55;5.97;;;1.60;99.90;;;;;;4993599;28;20683;-59
2023/02/28 03:03:17;;;;;;;7.68;6.15;;;1.50;99.90;;;;;;4993603;28;20703;-59
2023/02/28 03:05:47;;;;;;;7.63;6.22;;;1.40;99.90;;;;;;4993451;28;20299;-59
2023/02/28 03:08:14;;;;;;;6.80;6.20;;;1.40;99.90;;;;;;4993766;28;20188;-59
2023/02/28 03:10:42;;;;;;;8.05;6.35;;;1.50;99.90;;;;;;4993483;28;20661;-59
2023/02/28 03:13:36;;;;;;;6.95;6.25;;;1.40;99.90;;;;;;4993603;28;20561;-59
2023/02/28 03:16:29;;;;;;;8.55;5.30;;;1.50;99.90;;;;;;4993797;28;20189;-59
2023/02/28 03:19:03;;;;;;;6.53;5.85;;;1.40;99.90;;;;;;4992352;28;20311;-59
2023/02/28 03:21:36;;;;;;;6.40;5.80;;;1.40;99.90;;;;;;4993513;28;20194;-59
2023/02/28 03:24:06;;;;;;;8.68;5.65;;;1.40;99.90;;;;;;4993323;28;20660;-59
2023/02/28 03:26:37;;;;;;;7.90;6.60;;;1.40;99.90;;;;;;4993558;28;20189;-59
2023/02/28 03:29:10;;;;;;;8.77;6.65;;;1.30;99.90;;;;;;4993539;28;20197;-59
2023/02/28 03:31:40;;;;;;;7.63;5.60;;;1.20;99.90;;;;;;4993512;28;20207;-59
2023/02/28 03:34:11;;;;;;;8.30;5.80;;;1.20;99.90;;;;;;4993720;28;20199;-60
2023/02/28 03:36:44;;;;;;;6.95;6.28;;;1.20;99.90;;;;;;4993063;28;20647;-60
2023/02/28 03:39:16;;;;;;;6.68;5.85;;;1.20;99.90;;;;;;4993272;28;20227;-60
2023/02/28 03:41:49;;;;;;;10.07;6.82;;;1.20;99.90;;;;;;4993407;28;20287;-60
2023/02/28 03:44:20;;;;;;;6.60;5.90;;;1.20;99.90;;;;;;4993360;28;20319;-60
2023/02/28 03:46:52;;;;;;;9.88;6.72;;;1.20;99.90;;;;;;4993299;28;20207;-60
2023/02/28 03:49:23;;;;;;;6.53;5.75;;;1.00;99.90;;;;;;4993065;28;20195;-60
2023/02/28 03:51:53;;;;;;;6.55;6.05;;;1.00;99.90;;;;;;4993302;28;20192;-60
2023/02/28 03:54:24;;;;;;;6.00;5.25;;;1.10;99.90;;;;;;4993220;28;20194;-60
2023/02/28 03:56:56;;;;;;;7.85;6.15;;;1.00;99.90;;;;;;4993177;28;20208;-60
2023/02/28 03:59:29;;;;;;;7.10;6.25;;;1.10;99.90;;;;;;4992996;28;20691;-60
2023/02/28 04:01:58;;;;;;;7.18;5.78;;;1.10;99.90;;;;;;4993285;28;20193;-61
2023/02/28 04:04:24;;;;;;;5.93;5.38;;;1.10;99.90;;;;;;4993412;28;20200;-60
2023/02/28 04:06:53;;;;;;;6.07;5.47;;;1.00;99.90;;;;;;4993108;28;20199;-60
2023/02/28 04:09:20;;;;;;;6.35;5.75;;;1.00;99.90;;;;;;4992977;28;20204;-60
2023/02/28 04:11:51;;;;;;;6.80;6.10;;;1.00;99.90;;;;;;4992973;28;20298;-60
2023/02/28 04:14:17;;;;;;;6.80;6.07;;;0.90;99.90;;;;;;4993218;28;20185;-60
2023/02/28 04:16:44;;;;;;;7.20;5.38;;;0.90;99.90;;;;;;4992965;28;20220;-60
2023/02/28 04:19:12;;;;;;;9.93;5.70;;;0.70;99.90;;;;;;4995624;28;20570;-60
2023/02/28 04:21:41;;;;;;;5.63;5.07;;;0.80;99.90;;;;;;4996535;28;20627;-60
2023/02/28 04:24:13;;;;;;;6.50;5.90;;;0.70;99.90;;;;;;4996542;28;20199;-60
2023/02/28 04:26:43;;;;;;;8.73;5.45;;;0.50;99.90;;;;;;4996350;28;20653;-60
2023/02/28 04:29:10;;;;;;;6.43;5.65;;;0.70;99.90;;;;;;4996569;28;20652;-60
2023/02/28 04:31:37;;;;;;;6.53;5.78;;;0.70;99.90;;;;;;4996413;28;20197;-60
2023/02/28 04:34:03;;;;;;;7.35;6.18;;;0.60;99.90;;;;;;4996342;28;20283;-60
2023/02/28 04:36:30;;;;;;;6.97;4.90;;;0.50;99.90;;;;;;4996081;28;20224;-60
2023/02/28 04:38:57;;;;;;;5.53;4.95;;;0.50;99.90;;;;;;4996029;28;20195;-60
2023/02/28 04:41:25;;;;;;;6.50;5.00;;;0.50;99.90;;;;;;4996286;28;20192;-60
2023/02/28 04:43:52;;;;;;;6.25;5.40;;;0.40;99.90;;;;;;4996250;28;20203;-60
2023/02/28 04:46:18;;;;;;;7.85;5.45;;;0.50;99.90;;;;;;4996006;28;20712;-59
2023/02/28 04:48:45;;;;;;;6.63;5.38;;;0.60;99.90;;;;;;4996019;28;20199;-60
2023/02/28 04:51:13;;;;;;;8.95;5.50;;;0.50;99.90;;;;;;4995927;28;20295;-60
2023/02/28 04:53:42;;;;;;;7.18;6.40;;;0.50;99.90;;;;;;4995835;28;20188;-60
2023/02/28 04:56:11;;;;;;;6.05;4.93;;;0.60;99.90;;;;;;4996000;28;20292;-60
2023/02/28 04:58:39;;;;;;;5.30;4.80;;;0.50;99.90;;;;;;4995856;28;20287;-60
2023/02/28 05:01:12;;;;;;;6.07;4.97;;;0.50;99.90;;;;;;4995639;28;20687;-60
2023/02/28 05:03:40;;;;;;;6.53;5.72;;;0.40;99.90;;;;;;4995787;28;20192;-60
2023/02/28 05:06:07;;;;;;;8.05;6.05;;;0.30;99.90;;;;;;4995678;28;20287;-60
2023/02/28 05:08:33;;;;;;;5.80;5.30;;;0.20;99.90;;;;;;4995824;28;20192;-60
2023/02/28 05:11:00;;;;;;;6.28;4.85;;;0.30;99.90;;;;;;4995707;28;20292;-60
2023/02/28 05:13:27;;;;;;;5.45;4.50;;;0.10;99.90;;;;;;4995644;28;20199;-60
2023/02/28 05:15:55;;;;;;;7.45;5.22;;;0.20;99.90;;;;;;4995435;28;20202;-60
2023/02/28 05:18:22;;;;;;;4.93;4.50;;;0.20;99.90;;;;;;4995459;28;20192;-60
2023/02/28 05:20:48;;;;;;;5.70;4.90;;;0.20;99.90;;;;;;4995287;28;20223;-60
2023/02/28 05:23:17;;;;;;;7.90;5.57;;;0.20;99.90;;;;;;4995557;28;20190;-60
2023/02/28 05:25:44;;;;;;;6.07;4.97;;;0.10;99.90;;;;;;4995440;28;20275;-60
2023/02/28 05:28:10;;;;;;;6.35;4.63;;;0.00;99.90;;;;;;4995349;28;20193;-60
2023/02/28 05:30:36;;;;;;;5.10;4.60;;;0.00;99.90;;;;;;4994991;28;20207;-62
2023/02/28 05:33:04;;;;;;;6.88;5.10;;;0.00;99.90;;;;;;4995375;28;20204;-60
2023/02/28 05:35:31;;;;;;;6.97;5.10;;;0.00;99.90;;;;;;4994889;28;20220;-60
2023/02/28 05:37:57;;;;;;;4.93;4.45;;;-0.10;99.90;;;;;;4995246;28;20235;-60
2023/02/28 05:40:24;;;;;;;4.35;3.95;;;-0.10;99.90;;;;;;4995087;28;20216;-59
2023/02/28 05:42:51;;;;;;;5.60;4.78;;;0.00;99.90;;;;;;4994983;28;20283;-59
2023/02/28 05:45:18;;;;;;;6.22;5.05;;;0.10;99.90;;;;;;4995017;28;20628;-59
2023/02/28 05:47:44;;;;;;;11.32;6.10;;;-0.10;99.90;;;;;;4994799;28;20192;-60
2023/02/28 05:50:12;;;;;;;6.18;4.80;;;0.00;99.90;;;;;;4995055;28;20614;-60
2023/02/28 05:52:39;;;;;;;5.43;4.93;;;-0.10;99.90;;;;;;4994867;28;20220;-60
2023/02/28 05:55:06;;;;;;;6.07;5.05;;;-0.10;99.90;;;;;;4994791;28;20579;-60
2023/02/28 05:57:33;;;;;;;6.72;4.43;;;-0.10;99.90;;;;;;4994651;28;20601;-59
2023/02/28 05:59:59;;;;;;;7.60;4.65;;;-0.20;99.90;;;;;;4995005;28;20307;-60
2023/02/28 06:02:26;;;;;;;6.22;5.00;;;-0.10;99.90;;;;;;4994502;28;20199;-59
2023/02/28 06:04:52;;;;;;;7.93;4.55;;;-0.10;99.90;;;;;;4994450;28;20200;-60
2023/02/28 06:07:22;;;;;;;5.20;4.70;;;-0.20;99.90;;;;;;4994599;28;20582;-60
2023/02/28 06:09:48;;;;;;;6.03;4.78;;;-0.20;99.90;;;;;;4994480;28;20203;-59
2023/02/28 06:12:15;;;;;;;4.55;4.15;;;-0.20;99.90;;;;;;4994350;28;20284;-59
2023/02/28 06:14:41;;;;;;;5.50;4.40;;;-0.30;99.90;;;;;;4994246;28;20667;-60
2023/02/28 06:17:09;;;;;;;5.57;5.07;;;-0.30;99.90;;;;;;4994235;28;20224;-60
2023/02/28 06:19:38;;;;;;;6.35;5.75;;;-0.30;99.90;;;;;;4994318;28;20283;-60
2023/02/28 06:22:05;;;;;;;6.40;4.97;;;-0.30;99.90;;;;;;4994362;28;20193;-59
2023/02/28 06:24:33;;;;;;;10.20;6.78;;;-0.30;99.90;;;;;;4994082;28;20192;-60
2023/02/28 06:27:04;;;;;;;6.10;5.50;;;-0.20;99.90;;;;;;4994038;28;20279;-60
2023/02/28 06:29:31;;;;;;;10.05;5.82;;;-0.10;99.90;;;;;;4993975;28;20636;-60
2023/02/28 06:31:57;;;;;;;7.32;5.93;;;-0.10;99.90;;;;;;4994200;28;20287;-60
2023/02/28 06:34:24;;;;;;;6.25;5.00;;;0.00;99.90;;;;;;4994083;28;20280;-60
2023/02/28 06:36:52;;;;;;;6.57;5.70;;;0.10;99.90;;;;;;4994058;28;20221;-60
2023/02/28 06:39:19;;;;;;;8.52;5.95;;;0.30;99.90;;;;;;4994291;28;20218;-60
2023/02/28 06:41:47;;;;;;;6.95;6.20;;;0.40;99.90;;;;;;4993134;28;20314;-59
2023/02/28 06:44:16;;;;;;;7.10;5.60;;;0.50;99.90;;;;;;4993649;28;20358;-60
2023/02/28 06:46:43;;;;;;;10.20;5.80;;;0.60;99.90;;;;;;4993820;28;20286;-60
2023/02/28 06:49:11;;;;;;;9.57;5.88;;;0.60;99.90;;;;;;4993909;28;20196;-60
2023/02/28 06:51:39;;;;;;;8.73;6.95;;;0.70;99.90;;;;;;4993758;28;20222;-60
2023/02/28 06:54:08;;;;;;;12.02;6.90;;;0.70;99.90;;;;;;4993627;28;20529;-60
2023/02/28 06:56:35;;;;;;;9.10;5.95;;;0.80;99.90;;;;;;4993566;28;20219;-60
2023/02/28 06:59:03;;;;;;;9.10;6.88;;;1.00;99.90;;;;;;4993744;28;20219;-60
2023/02/28 07:01:31;;;;;;;10.68;7.63;;;0.90;99.90;;;;;;4993578;28;20228;-60
2023/02/28 07:03:57;;;;;;;9.45;6.85;;;1.00;99.90;;;;;;4993561;28;20199;-59
2023/02/28 07:06:25;;;;;;;12.45;7.95;;;1.20;99.90;;;;;;4993546;28;20197;-60
2023/02/28 07:08:53;;;;;;;11.82;6.68;;;1.30;99.90;;;;;;4993439;28;20193;-60
2023/02/28 07:11:19;;;;;;;7.40;6.35;;;1.50;99.90;;;;;;4993325;28;20279;-60
2023/02/28 07:13:47;;;;;;;10.85;7.53;;;1.60;99.90;;;;;;4993490;28;20201;-60
2023/02/28 07:16:15;;;;;;;8.15;7.30;;;1.70;99.90;;;;;;4993244;28;20658;-60
2023/02/28 07:18:41;;;;;;;9.52;7.38;;;1.80;99.90;;;;;;4993428;28;20215;-60
2023/02/28 07:21:09;;;;;;;12.50;7.80;;;1.80;99.90;;;;;;4993219;28;20330;-60
2023/02/28 07:23:37;;;;;;;12.45;8.45;;;1.90;99.90;;;;;;4993246;28;20194;-60
2023/02/28 07:26:04;;;;;;;13.43;9.40;;;1.90;99.90;;;;;;4993208;28;20212;-60
2023/02/28 07:28:31;;;;;;;15.13;9.23;;;2.10;99.90;;;;;;4993295;28;20294;-60
2023/02/28 07:30:58;;;;;;;12.90;9.10;;;2.20;99.90;;;;;;4993161;28;20211;-60
2023/02/28 07:33:25;;;;;;;15.88;10.40;;;2.20;99.90;;;;;;4993264;28;20193;-60
2023/02/28 07:35:52;;;;;;;16.50;9.45;;;2.30;99.90;;;;;;4993011;28;20316;-60
2023/02/28 07:38:18;;;;;;;14.63;10.35;;;2.30;99.90;;;;;;4993050;28;20670;-60
2023/02/28 07:40:45;;;;;;;11.02;7.88;;;2.40;99.90;;;;;;4993072;28;20229;-60
2023/02/28 07:43:11;;;;;;;12.13;8.82;;;2.50;99.90;;;;;;4993302;28;20288;-60
2023/02/28 07:45:38;;;;;;;11.55;7.53;;;2.70;99.90;;;;;;4993201;28;20199;-60
2023/02/28 07:48:04;;;;;;;9.10;7.45;;;2.80;99.90;;;;;;4993103;28;20233;-60
2023/02/28 07:50:32;;;;;;;12.73;9.35;;;2.90;99.90;;;;;;4992993;28;20285;-60
2023/02/28 07:52:59;;;;;;;10.32;7.38;;;2.90;99.90;;;;;;4995415;28;20283;-60
2023/02/28 07:55:26;;;;;;;9.07;6.28;;;2.80;99.90;;;;;;4997192;28;20201;-60
2023/02/28 07:57:52;;;;;;;8.68;6.03;;;2.70;99.90;;;;;;4997061;28;20739;-60
2023/02/28 08:00:19;;;;;;;7.30;5.45;;;2.60;99.90;;;;;;4996747;28;20671;-60
2023/02/28 08:02:46;;;;;;;5.72;5.10;;;2.40;99.90;;;;;;4996703;28;20203;-60
2023/02/28 08:05:12;;;;;;;5.03;4.50;;;2.40;99.90;;;;;;4996621;28;20248;-60
2023/02/28 08:07:40;;;;;;;5.75;4.82;;;2.40;99.90;;;;;;4996633;28;20247;-60
2023/02/28 08:10:09;;;;;;;7.85;5.55;;;2.50;99.90;;;;;;4996729;28;20279;-60
2023/02/28 08:12:36;;;;;;;6.90;4.70;;;2.50;99.90;;;;;;4996758;28;20193;-60
2023/02/28 08:15:02;;;;;;;4.60;4.10;;;2.60;99.90;;;;;;4996475;28;20644;-60
2023/02/28 08:17:29;;;;;;;6.72;4.45;;;2.60;99.90;;;;;;4996471;28;20195;-60
2023/02/28 08:19:55;;;;;;;8.70;4.75;;;2.60;99.90;;;;;;4996366;28;20196;-60
2023/02/28 08:22:22;;;;;;;5.68;4.68;;;2.60;99.90;;;;;;4996386;28;20224;-58
2023/02/28 08:24:50;;;;;;;7.07;5.28;;;2.70;99.90;;;;;;4996518;28;20201;-59
2023/02/28 08:27:17;;;;;;;13.75;5.00;;;2.80;99.90;;;;;;4996454;28;20190;-58
2023/02/28 08:29:43;;;;;;;5.25;4.75;;;2.80;99.90;;;;;;4996003;28;20203;-60
2023/02/28 08:32:10;;;;;;;7.90;4.68;;;2.80;99.90;;;;;;4996051;28;20239;-60
2023/02/28 08:34:36;;;;;;;8.25;4.50;;;2.80;99.90;;;;;;4996014;28;20197;-63
2023/02/28 08:37:03;;;;;;;5.65;3.95;;;3.00;99.90;;;;;;4996069;28;20228;-60
2023/02/28 08:39:29;;;;;;;8.68;4.10;;;3.00;99.90;;;;;;4996233;28;20277;-60
2023/02/28 08:41:57;;;;;;;6.97;4.10;;;3.10;99.90;;;;;;4996135;28;20224;-59
2023/02/28 08:44:23;;;;;;;6.60;4.30;;;3.10;99.90;;;;;;4996059;28;20212;-58
2023/02/28 08:46:50;;;;;;;6.03;4.35;;;3.10;99.90;;;;;;4996028;28;20201;-58
2023/02/28 08:49:16;;;;;;;9.23;4.57;;;3.20;99.90;;;;;;4996175;28;20648;-63
2023/02/28 08:51:43;;;;;;;4.70;3.40;;;3.30;99.90;;;;;;4995953;28;20580;-62
2023/02/28 08:54:12;;;;;;;10.55;4.03;;;3.50;99.90;;;;;;4995953;28;20221;-62
2023/02/28 08:56:39;;;;;;;5.10;3.50;;;3.60;99.90;;;;;;4995777;28;20201;-62
2023/02/28 08:59:07;;;;;;;15.63;4.78;;;3.80;99.90;;;;;;4995815;28;20280;-61
2023/02/28 09:01:33;;;;;;;4.18;3.47;;;3.90;99.90;;;;;;4995935;28;20267;-63
2023/02/28 09:04:01;;;;;;;5.95;3.95;;;4.10;99.90;;;;;;4995241;28;20325;-60
2023/02/28 09:06:28;;;;;;;9.40;4.05;;;4.20;99.90;;;;;;4995961;28;20292;-62
2023/02/28 09:08:58;;;;;;;21.65;5.15;;;4.30;99.90;;;;;;4995405;28;20669;-62
2023/02/28 09:11:25;;;;;;;9.80;4.07;;;4.40;99.90;;;;;;4995677;28;20194;-60
2023/02/28 09:13:51;;;;;;;7.10;3.95;;;4.40;99.90;;;;;;4995487;28;20197;-62
2023/02/28 09:16:19;;;;;;;15.52;4.28;;;4.40;99.90;;;;;;4995390;28;20213;-63
2023/02/28 09:18:46;;;;;;;3.55;2.63;;;4.60;99.90;;;;;;4995450;28;20617;-56
2023/02/28 09:21:15;;;;;;;3.25;2.42;;;4.70;99.90;;;;;;4995441;28;20222;-59
2023/02/28 09:23:41;;;;;;;3.05;2.75;;;4.70;99.90;;;;;;4995315;28;20646;-61
2023/02/28 09:26:13;;;;;;;6.15;2.95;;;4.70;99.90;;;;;;4995251;28;20206;-60
2023/02/28 09:28:40;;;;;;;3.05;2.30;;;4.70;99.90;;;;;;4995300;28;20190;-60
2023/02/28 09:31:06;;;;;;;2.88;2.38;;;4.70;99.90;;;;;;4995416;28;20283;-61
2023/02/28 09:33:34;;;;;;;3.03;1.95;;;4.80;99.90;;;;;;4995074;28;20284;-60
2023/02/28 09:36:03;;;;;;;1.65;1.40;;;4.60;99.90;;;;;;4995033;28;20226;-60
2023/02/28 09:38:30;;;;;;;5.43;2.00;;;4.50;99.90;;;;;;4994935;28;20557;-58
2023/02/28 09:40:59;;;;;;;2.20;2.00;;;4.40;99.90;;;;;;4994807;28;20223;-59
2023/02/28 09:43:29;;;;;;;6.03;2.30;;;4.50;99.90;;;;;;4994428;28;20644;-59
2023/02/28 09:46:01;;;;;;;1.77;1.17;;;4.60;99.90;;;;;;4995039;28;20645;-59
2023/02/28 09:48:34;;;;;;;7.00;1.92;;;4.70;99.90;;;;;;4994964;28;20198;-57
2023/02/28 09:51:05;;;;;;;2.42;1.60;;;4.70;99.90;;;;;;4994862;28;20194;-58
2023/02/28 09:53:34;;;;;;;2.22;2.00;;;4.80;99.90;;;;;;4994714;28;20278;-60
2023/02/28 09:56:05;;;;;;;3.40;2.30;;;4.90;99.90;;;;;;4994710;28;20649;-61
2023/02/28 09:58:38;;;;;;;2.40;2.20;;;4.90;99.90;;;;;;4994876;28;20194;-61
2023/02/28 10:01:11;;;;;;;7.57;2.55;;;4.80;99.90;;;;;;4994679;28;20217;-61
2023/02/28 10:03:43;;;;;;;2.20;2.00;;;4.90;99.90;;;;;;4994586;28;20277;-60
2023/02/28 10:06:17;;;;;;;2.25;2.05;;;4.90;99.90;;;;;;4994115;28;20199;-61
2023/02/28 10:08:50;;;;;;;1.55;1.35;;;4.90;99.90;;;;;;4994612;28;20197;-61
2023/02/28 10:11:20;;;;;;;3.05;1.60;;;5.00;99.90;;;;;;4994552;28;20557;-53
2023/02/28 10:13:54;;;;;;;2.40;1.70;;;5.00;99.90;;;;;;4994330;28;20190;-59
2023/02/28 10:16:26;;;;;;;4.30;1.95;;;5.10;99.90;;;;;;4993381;28;20487;-59
2023/02/28 10:18:57;;;;;;;3.90;2.00;;;5.10;99.90;;;;;;4994259;28;20194;-59
2023/02/28 10:21:33;;;;;;;2.60;1.65;;;5.10;99.90;;;;;;4994286;28;20576;-60
2023/02/28 10:24:05;;;;;;;3.75;2.08;;;5.10;99.90;;;;;;4993359;28;20467;-60
2023/02/28 10:26:33;;;;;;;2.67;2.13;;;5.10;99.90;;;;;;4994240;28;20290;-60
2023/02/28 10:29:00;;;;;;;2.95;1.80;;;5.20;99.90;;;;;;4994183;28;20198;-61
2023/02/28 10:31:26;;;;;;;6.10;2.33;;;5.30;99.90;;;;;;4993873;28;20305;-60
2023/02/28 10:33:53;;;;;;;2.30;2.10;;;5.40;99.90;;;;;;4993981;28;20303;-60
2023/02/28 10:36:21;;;;;;;3.38;2.25;;;5.40;99.90;;;;;;4993734;28;20608;-60
2023/02/28 10:38:50;;;;;;;2.90;2.13;;;5.40;99.90;;;;;;4993870;28;20280;-60
2023/02/28 10:41:27;;;;;;;4.15;2.70;;;5.40;99.90;;;;;;4993690;28;20295;-60
2023/02/28 10:43:53;;;;;;;3.30;2.65;;;5.50;99.90;;;;;;4993653;28;20201;-60
2023/02/28 10:46:25;;;;;;;2.45;2.00;;;5.50;99.90;;;;;;4993531;28;20194;-60
2023/02/28 10:49:02;;;;;;;3.03;2.65;;;5.50;99.90;;;;;;4993766;28;20534;-60
2023/02/28 10:51:37;;;;;;;2.85;1.90;;;5.50;99.90;;;;;;4993524;28;20205;-60
2023/02/28 10:54:05;;;;;;;2.60;1.98;;;5.50;99.90;;;;;;4993399;28;20193;-60
2023/02/28 10:56:33;;;;;;;5.68;2.58;;;5.60;99.90;;;;;;4993684;28;20554;-61
2023/02/28 10:59:01;;;;;;;2.10;1.90;;;5.60;99.90;;;;;;4993793;28;20675;-60
2023/02/28 11:01:37;;;;;;;2.17;1.88;;;5.70;99.90;;;;;;4993543;28;20269;-60
2023/02/28 11:04:04;;;;;;;3.17;2.33;;;5.70;99.90;;;;;;4993584;28;20198;-58
2023/02/28 11:06:32;;;;;;;2.20;2.00;;;5.70;99.90;;;;;;4993448;28;20225;-56
2023/02/28 11:09:01;;;;;;;3.38;2.17;;;5.80;99.90;;;;;;4993673;28;20204;-62
2023/02/28 11:11:32;;;;;;;6.03;1.95;;;5.80;99.90;;;;;;4993630;28;20309;-60
2023/02/28 11:14:04;;;;;;;3.17;1.73;;;5.80;99.90;;;;;;4993516;28;20283;-60
2023/02/28 11:16:36;;;;;;;3.20;1.90;;;5.90;99.90;;;;;;4993487;28;20286;-61
2023/02/28 11:19:04;;;;;;;2.92;2.40;;;6.10;99.90;;;;;;4993376;28;20617;-59
2023/02/28 11:21:34;;;;;;;3.95;2.10;;;6.20;99.90;;;;;;4993129;28;20229;-63
2023/02/28 11:24:04;;;;;;;4.00;2.40;;;6.30;99.90;;;;;;4993617;28;20298;-61
2023/02/28 11:26:43;;;;;;;2.87;1.90;;;6.40;99.90;;;;;;4994289;28;20205;-63
2023/02/28 11:29:21;;;;;;;2.00;1.90;;;6.60;99.90;;;;;;4999900;28;20806;-60
2023/02/28 11:32:17;;;;;;;2.38;2.17;;;6.60;99.90;;;;;;4999693;28;21013;-65
2023/02/28 11:34:44;;;;;;;2.40;2.05;;;6.60;99.90;;;;;;4999559;28;20237;-62
2023/02/28 11:37:14;;;;;;;2.93;2.10;;;6.70;99.90;;;;;;4999537;28;20225;-62
2023/02/28 11:39:41;;;;;;;4.50;2.70;;;6.70;99.90;;;;;;4999613;28;20952;-61
2023/02/28 11:42:38;;;;;;;3.17;2.28;;;6.70;99.90;;;;;;4999460;28;20583;-61
2023/02/28 11:45:17;;;;;;;7.03;2.22;;;6.70;99.90;;;;;;4998865;28;20289;-62
2023/02/28 11:47:49;;;;;;;4.35;2.10;;;6.60;98.80;;;;;;4999667;28;20194;-59
2023/02/28 11:50:33;;;;;;;2.67;2.47;;;6.70;98.60;;;;;;4999591;28;20198;-59
2023/02/28 11:53:05;;;;;;;2.20;2.00;;;6.60;99.50;;;;;;4999802;28;20287;-59
2023/02/28 11:55:37;;;;;;;3.50;2.83;;;6.60;99.60;;;;;;4999829;28;20190;-59
2023/02/28 11:58:24;;;;;;;3.00;2.70;;;6.70;98.90;;;;;;4999560;28;20451;-62
2023/02/28 12:01:04;;;;;;;2.47;2.28;;;6.50;99.80;;;;;;4999411;28;20548;-59
2023/02/28 12:03:39;;;;;;;2.72;2.50;;;6.70;98.70;;;;;;4999578;28;20316;-61
2023/02/28 12:06:18;;;;;;;2.70;2.17;;;6.80;99.20;;;;;;4999484;28;20221;-62
2023/02/28 12:08:56;;;;;;;3.35;2.20;;;6.60;98.80;;;;;;4999475;28;20459;-57
2023/02/28 12:11:35;;;;;;;2.22;1.98;;;6.60;98.90;;;;;;4999367;28;20199;-63
2023/02/28 12:14:18;;;;;;;7.03;2.65;;;6.60;98.80;;;;;;4999420;28;20206;-62
2023/02/28 12:16:54;;;;;;;3.83;2.53;;;6.70;99.90;;;;;;4999499;28;20226;-61
2023/02/28 12:19:27;;;;;;;3.93;2.67;;;6.90;99.00;;;;;;4999149;28;20566;-60
2023/02/28 12:22:18;;;;;;;2.97;2.72;;;6.90;98.90;;;;;;4998975;28;20568;-60
2023/02/28 12:25:14;;;;;;;3.50;2.30;;;6.70;99.10;;;;;;4999464;28;20203;-62
2023/02/28 12:27:44;;;;;;;2.93;2.33;;;6.70;99.40;;;;;;4999350;28;20975;-62
2023/02/28 12:30:20;;;;;;;3.97;2.40;;;6.70;99.00;;;;;;4999358;28;20453;-61
2023/02/28 12:32:50;;;;;;;3.20;3.00;;;6.80;99.60;;;;;;4999069;28;20947;-61
2023/02/28 12:35:22;;;;;;;2.47;2.23;;;6.90;99.30;;;;;;4999093;28;20669;-63
2023/02/28 12:37:52;;;;;;;2.43;2.20;;;6.90;98.20;;;;;;4998924;28;20457;-60
2023/02/28 12:40:22;;;;;;;4.50;2.37;;;6.90;98.60;;;;;;4995359;28;20476;-58
2023/02/28 12:42:52;;;;;;;3.60;2.07;;;7.00;97.70;;;;;;4996174;28;20507;-63
2023/02/28 12:45:23;;;;;;;3.00;2.33;;;7.10;97.60;;;;;;4996273;28;20461;-59
2023/02/28 12:47:53;;;;;;;2.67;2.30;;;6.90;97.70;;;;;;4996196;28;20808;-63
2023/02/28 12:50:21;;;;;;;2.47;2.27;;;6.90;97.50;;;;;;4995993;28;20537;-62
2023/02/28 12:52:56;;;;;;;5.00;2.30;;;6.80;97.40;;;;;;4995690;28;20956;-63
2023/02/28 12:55:30;;;;;;;2.97;2.50;;;6.90;97.70;;;;;;4995953;28;20534;-64
2023/02/28 12:58:02;;;;;;;2.30;2.10;;;6.90;97.30;;;;;;4995744;28;20726;-66
2023/02/28 13:00:37;;;;;;;4.00;2.95;;;6.60;97.50;;;;;;4995837;28;20222;-62
2023/02/28 13:03:37;;;;;;;2.40;2.05;;;6.60;97.90;;;;;;4995601;28;20218;-61
2023/02/28 13:06:23;;;;;;;2.70;2.50;;;6.70;97.70;;;;;;4995767;28;20202;-62
2023/02/28 13:09:05;;;;;;;2.75;2.38;;;6.80;97.60;;;;;;4995521;28;20538;-61